createdAt,value
2022-09-10T00:00:56.497Z,17.83
2022-09-10T00:03:23.498Z,17.81
2022-09-10T00:05:50.338Z,17.82
2022-09-10T00:08:17.670Z,17.79
2022-09-10T00:10:51.908Z,17.77
2022-09-10T00:13:20.049Z,17.79
2022-09-10T00:15:47.814Z,17.80
2022-09-10T00:18:15.457Z,17.72
2022-09-10T00:20:47.899Z,17.74
2022-09-10T00:23:15.484Z,17.77
2022-09-10T00:25:42.777Z,17.82
2022-09-10T00:28:09.587Z,17.86
2022-09-10T00:30:43.001Z,17.89
2022-09-10T00:33:10.013Z,17.92
2022-09-10T00:35:37.266Z,17.84
2022-09-10T00:38:04.050Z,17.80
2022-09-10T00:40:31.502Z,17.80
2022-09-10T00:42:58.441Z,17.90
2022-09-10T00:45:29.739Z,17.94
2022-09-10T00:47:58.080Z,17.88
2022-09-10T00:50:30.320Z,17.85
2022-09-10T00:52:58.407Z,17.91
2022-09-10T00:55:24.945Z,17.85
2022-09-10T00:57:54.808Z,17.89
2022-09-10T01:00:21.374Z,17.94
2022-09-10T01:02:48.186Z,18.02
2022-09-10T01:05:15.123Z,18.07
2022-09-10T01:07:42.822Z,17.99
2022-09-10T01:10:16.200Z,17.89
2022-09-10T01:13:01.659Z,17.80
2022-09-10T01:15:35.431Z,17.68
2022-09-10T01:18:21.284Z,17.65
2022-09-10T01:20:47.922Z,17.70
2022-09-10T01:23:33.794Z,17.58
2022-09-10T01:26:20.915Z,17.58
2022-09-10T01:28:56.771Z,17.57
2022-09-10T01:31:28.200Z,17.60
2022-09-10T01:34:21.131Z,17.59
2022-09-10T01:36:48.683Z,17.53
2022-09-10T01:39:18.145Z,17.55
2022-09-10T01:41:45.436Z,17.65
2022-09-10T01:44:31.157Z,17.70
2022-09-10T01:47:09.240Z,17.68
2022-09-10T01:49:43.767Z,17.74
2022-09-10T01:52:30.348Z,17.73
2022-09-10T01:55:06.511Z,17.79
2022-09-10T01:57:55.357Z,17.77
2022-09-10T02:00:24.836Z,17.68
2022-09-10T02:02:59.028Z,17.69
2022-09-10T02:05:31.212Z,17.67
2022-09-10T02:08:10.123Z,17.63
2022-09-10T02:10:52.118Z,17.70
2022-09-10T02:13:20.344Z,17.69
2022-09-10T02:15:59.334Z,17.58
2022-09-10T02:18:32.870Z,17.57
2022-09-10T02:21:02.736Z,17.47
2022-09-10T02:23:37.212Z,17.55
2022-09-10T02:26:03.770Z,17.65
2022-09-10T02:28:30.452Z,17.73
2022-09-10T02:30:57.106Z,17.76
2022-09-10T02:33:23.774Z,17.77
2022-09-10T02:35:50.245Z,17.73
2022-09-10T02:38:18.118Z,17.73
2022-09-10T02:40:46.783Z,17.70
2022-09-10T02:43:13.232Z,17.61
2022-09-10T02:45:41.064Z,17.67
2022-09-10T02:48:07.625Z,17.72
2022-09-10T02:50:34.454Z,17.75
2022-09-10T02:53:02.391Z,17.71
2022-09-10T02:55:29.432Z,17.63
2022-09-10T02:57:56.158Z,17.63
2022-09-10T03:00:22.792Z,17.65
2022-09-10T03:02:49.502Z,17.61
2022-09-10T03:05:16.513Z,17.59
2022-09-10T03:07:44.818Z,17.51
2022-09-10T03:10:12.700Z,17.44
2022-09-10T03:12:39.302Z,17.41
2022-09-10T03:15:06.892Z,17.38
2022-09-10T03:17:33.457Z,17.46
2022-09-10T03:19:59.972Z,17.53
2022-09-10T03:22:26.694Z,17.60
2022-09-10T03:24:55.019Z,17.60
2022-09-10T03:27:22.792Z,17.62
2022-09-10T03:29:49.526Z,17.59
2022-09-10T03:32:16.062Z,17.57
2022-09-10T03:34:42.919Z,17.54
2022-09-10T03:37:09.505Z,17.49
2022-09-10T03:39:36.076Z,17.56
2022-09-10T03:42:05.209Z,17.52
2022-09-10T03:44:33.551Z,17.55
2022-09-10T03:47:00.713Z,17.65
2022-09-10T03:49:27.574Z,17.74
2022-09-10T03:51:54.231Z,17.63
2022-09-10T03:54:21.270Z,17.61
2022-09-10T03:56:47.933Z,17.67
2022-09-10T03:59:14.842Z,17.67
2022-09-10T04:01:41.792Z,17.68
2022-09-10T04:04:08.413Z,17.72
2022-09-10T04:06:35.436Z,17.61
2022-09-10T04:09:01.882Z,17.59
2022-09-10T04:11:28.824Z,17.51
2022-09-10T04:13:57.161Z,17.50
2022-09-10T04:16:24.581Z,17.57
2022-09-10T04:18:51.186Z,17.60
2022-09-10T04:21:17.832Z,17.59
2022-09-10T04:23:47.640Z,17.52
2022-09-10T04:26:15.062Z,17.42
2022-09-10T04:28:43.228Z,17.41
2022-09-10T04:31:10.238Z,17.30
2022-09-10T04:33:37.275Z,17.34
2022-09-10T04:36:05.429Z,17.33
2022-09-10T04:38:36.524Z,17.37
2022-09-10T04:41:03.019Z,17.44
2022-09-10T04:43:29.500Z,17.50
2022-09-10T04:45:59.101Z,17.54
2022-09-10T04:48:25.679Z,17.62
2022-09-10T04:51:14.909Z,17.63
2022-09-10T04:53:43.205Z,17.38
2022-09-10T04:56:09.849Z,17.31
2022-09-10T04:58:39.154Z,17.29
2022-09-10T05:01:06.144Z,17.23
2022-09-10T05:03:32.719Z,17.13
2022-09-10T05:05:59.497Z,17.07
2022-09-10T05:08:25.931Z,16.95
2022-09-10T05:10:56.278Z,17.05
2022-09-10T05:13:24.145Z,17.11
2022-09-10T05:15:50.765Z,17.20
2022-09-10T05:18:17.571Z,17.24
2022-09-10T05:20:44.923Z,17.25
2022-09-10T05:23:11.771Z,17.30
2022-09-10T05:25:39.193Z,17.35
2022-09-10T05:28:06.449Z,17.38
2022-09-10T05:30:33.149Z,17.34
2022-09-10T05:33:00.631Z,17.32
2022-09-10T05:35:28.863Z,17.35
2022-09-10T05:37:58.567Z,17.38
2022-09-10T05:40:25.455Z,17.43
2022-09-10T05:42:53.345Z,17.37
2022-09-10T05:45:21.137Z,17.34
2022-09-10T05:47:47.682Z,17.38
2022-09-10T05:50:18.690Z,17.43
2022-09-10T05:52:45.546Z,17.44
2022-09-10T05:55:12.424Z,17.43
2022-09-10T05:57:40.233Z,17.35
2022-09-10T06:00:09.292Z,17.21
2022-09-10T06:02:45.363Z,17.10
2022-09-10T06:05:25.551Z,17.02
2022-09-10T06:07:52.583Z,16.98
2022-09-10T06:10:19.981Z,17.04
2022-09-10T06:12:51.031Z,17.12
2022-09-10T06:15:19.144Z,17.20
2022-09-10T06:17:45.832Z,17.24
2022-09-10T06:20:13.549Z,17.27
2022-09-10T06:22:42.378Z,17.32
2022-09-10T06:25:09.705Z,17.39
2022-09-10T06:27:37.604Z,17.52
2022-09-10T06:30:05.757Z,17.51
2022-09-10T06:32:33.310Z,17.47
2022-09-10T06:35:01.542Z,17.52
2022-09-10T06:37:28.138Z,17.56
2022-09-10T06:39:55.458Z,17.68
2022-09-10T06:42:23.770Z,17.61
2022-09-10T06:44:57.110Z,17.63
2022-09-10T06:48:36.772Z,17.78
2022-09-10T06:50:37.583Z,17.77
2022-09-10T06:53:04.401Z,17.77
2022-09-10T06:55:31.055Z,17.88
2022-09-10T06:57:59.266Z,17.94
2022-09-10T07:00:27.468Z,17.98
2022-09-10T07:02:54.745Z,18.08
2022-09-10T07:05:22.511Z,18.22
2022-09-10T07:07:49.427Z,18.29
2022-09-10T07:10:17.292Z,18.31
2022-09-10T07:12:44.758Z,18.24
2022-09-10T07:15:12.440Z,18.17
2022-09-10T07:17:38.937Z,18.07
2022-09-10T07:20:06.787Z,18.13
2022-09-10T07:22:43.907Z,18.33
2022-09-10T07:25:12.771Z,18.39
2022-09-10T07:27:56.166Z,18.45
2022-09-10T07:30:23.883Z,18.55
2022-09-10T07:32:51.544Z,18.44
2022-09-10T07:35:22.395Z,18.50
2022-09-10T07:37:49.969Z,18.58
2022-09-10T07:40:17.658Z,18.70
2022-09-10T07:42:44.430Z,18.77
2022-09-10T07:45:16.143Z,18.63
2022-09-10T07:47:44.484Z,18.48
2022-09-10T07:50:11.687Z,18.44
2022-09-10T07:52:38.204Z,18.55
2022-09-10T07:55:04.945Z,18.55
2022-09-10T07:57:33.632Z,18.62
2022-09-10T08:00:00.679Z,18.84
2022-09-10T08:02:42.779Z,18.98
2022-09-10T08:05:12.040Z,19.05
2022-09-10T08:07:38.752Z,18.96
2022-09-10T08:10:08.957Z,18.97
2022-09-10T08:12:36.802Z,19.08
2022-09-10T08:15:04.219Z,19.04
2022-09-10T08:17:30.841Z,18.88
2022-09-10T08:19:57.739Z,18.81
2022-09-10T08:22:25.513Z,18.88
2022-09-10T08:24:56.027Z,18.99
2022-09-10T08:27:27.250Z,19.08
2022-09-10T08:29:54.727Z,18.98
2022-09-10T08:32:21.734Z,18.90
2022-09-10T08:34:48.340Z,19.01
2022-09-10T08:37:16.136Z,18.87
2022-09-10T08:39:43.387Z,19.09
2022-09-10T08:42:27.545Z,19.25
2022-09-10T08:44:58.885Z,19.40
2022-09-10T08:47:34.634Z,19.73
2022-09-10T08:50:18.741Z,19.97
2022-09-10T08:52:49.550Z,20.01
2022-09-10T08:55:21.724Z,20.14
2022-09-10T08:57:52.065Z,20.19
2022-09-10T09:00:23.346Z,20.10
2022-09-10T09:03:02.889Z,20.11
2022-09-10T09:05:36.428Z,20.05
2022-09-10T09:08:04.259Z,19.93
2022-09-10T09:10:37.587Z,19.80
2022-09-10T09:13:07.020Z,20.05
2022-09-10T09:15:59.961Z,20.41
2022-09-10T09:18:29.501Z,20.55
2022-09-10T09:21:06.468Z,20.70
2022-09-10T09:23:41.777Z,20.75
2022-09-10T09:26:15.922Z,21.02
2022-09-10T09:29:00.414Z,21.26
2022-09-10T09:31:29.075Z,21.55
2022-09-10T09:34:03.382Z,21.95
2022-09-10T09:36:34.281Z,22.45
2022-09-10T09:39:03.774Z,22.63
2022-09-10T09:41:38.323Z,22.78
2022-09-10T09:44:20.309Z,22.87
2022-09-10T09:46:46.711Z,22.85
2022-09-10T09:49:17.025Z,22.59
2022-09-10T09:51:46.283Z,22.45
2022-09-10T09:54:51.424Z,22.32
2022-09-10T09:57:14.744Z,22.21
2022-09-10T09:59:41.361Z,22.15
2022-09-10T10:02:16.819Z,22.07
2022-09-10T10:04:56.350Z,21.95
2022-09-10T10:07:26.994Z,22.15
2022-09-10T10:09:53.491Z,22.34
2022-09-10T10:12:21.085Z,22.35
2022-09-10T10:14:47.662Z,22.16
2022-09-10T10:17:33.008Z,21.90
2022-09-10T10:20:05.570Z,21.72
2022-09-10T10:22:32.186Z,21.94
2022-09-10T10:25:00.144Z,22.37
2022-09-10T10:27:32.960Z,22.57
2022-09-10T10:30:01.555Z,22.62
2022-09-10T10:32:34.989Z,22.60
2022-09-10T10:35:16.339Z,22.32
2022-09-10T10:37:53.606Z,21.92
2022-09-10T10:40:32.348Z,21.64
2022-09-10T10:43:14.180Z,21.41
2022-09-10T10:45:56.170Z,21.35
2022-09-10T10:48:25.731Z,21.42
2022-09-10T10:51:11.605Z,21.47
2022-09-10T10:53:38.362Z,21.27
2022-09-10T10:56:12.876Z,21.18
2022-09-10T10:58:53.977Z,21.13
2022-09-10T11:01:25.045Z,21.16
2022-09-10T11:03:56.622Z,21.19
2022-09-10T11:06:25.837Z,21.09
2022-09-10T11:09:01.905Z,21.00
2022-09-10T11:11:34.594Z,20.87
2022-09-10T11:14:00.983Z,20.76
2022-09-10T11:16:36.521Z,20.62
2022-09-10T11:19:16.134Z,20.63
2022-09-10T11:21:50.671Z,20.63
2022-09-10T11:24:19.275Z,20.83
2022-09-10T11:26:50.132Z,21.35
2022-09-10T11:29:35.457Z,21.92
2022-09-10T11:32:05.000Z,22.51
2022-09-10T11:34:43.870Z,22.94
2022-09-10T11:37:26.533Z,23.05
2022-09-10T11:39:55.092Z,23.25
2022-09-10T11:42:27.922Z,23.32
2022-09-10T11:44:58.336Z,23.77
2022-09-10T11:47:24.764Z,23.94
2022-09-10T11:50:23.748Z,23.90
2022-09-10T11:52:50.880Z,23.96
2022-09-10T11:55:17.799Z,23.90
2022-09-10T11:57:56.494Z,23.83
2022-09-10T12:00:25.292Z,23.54
2022-09-10T12:03:18.251Z,23.16
2022-09-10T12:05:56.357Z,22.73
2022-09-10T12:08:28.471Z,22.38
2022-09-10T12:11:13.952Z,22.25
2022-09-10T12:13:41.489Z,22.06
2022-09-10T12:16:20.117Z,21.98
2022-09-10T12:18:51.383Z,22.07
2022-09-10T12:21:25.318Z,22.34
2022-09-10T12:23:52.815Z,22.63
2022-09-10T12:26:22.301Z,22.62
2022-09-10T12:28:49.420Z,22.77
2022-09-10T12:31:17.323Z,22.81
2022-09-10T12:33:43.809Z,22.87
2022-09-10T12:36:11.285Z,22.94
2022-09-10T12:38:56.887Z,23.13
2022-09-10T12:41:23.283Z,23.29
2022-09-10T12:43:49.741Z,23.24
2022-09-10T12:46:19.880Z,23.33
2022-09-10T12:48:55.959Z,23.40
2022-09-10T12:51:42.009Z,23.40
2022-09-10T12:54:23.774Z,23.43
2022-09-10T12:57:03.142Z,23.46
2022-09-10T12:59:35.504Z,23.43
2022-09-10T13:02:02.853Z,23.32
2022-09-10T13:04:34.729Z,23.54
2022-09-10T13:07:04.518Z,23.71
2022-09-10T13:09:36.432Z,23.90
2022-09-10T13:12:08.164Z,23.87
2022-09-10T13:14:38.171Z,23.45
2022-09-10T13:17:04.727Z,23.38
2022-09-10T13:19:31.137Z,23.44
2022-09-10T13:21:57.645Z,23.37
2022-09-10T13:24:33.882Z,23.23
2022-09-10T13:27:12.599Z,23.21
2022-09-10T13:30:14.650Z,22.96
2022-09-10T13:32:43.893Z,22.82
2022-09-10T13:35:10.379Z,22.85
2022-09-10T13:37:36.757Z,22.95
2022-09-10T13:40:22.439Z,22.98
2022-09-10T13:42:59.301Z,22.84
2022-09-10T13:45:35.749Z,22.66
2022-09-10T13:48:21.042Z,22.59
2022-09-10T13:51:07.755Z,22.76
2022-09-10T13:53:35.885Z,22.83
2022-09-10T13:56:12.355Z,22.88
2022-09-10T13:58:44.876Z,22.81
2022-09-10T14:01:11.436Z,22.74
2022-09-10T14:03:38.380Z,22.97
2022-09-10T14:06:09.697Z,22.89
2022-09-10T14:08:39.296Z,22.66
2022-09-10T14:11:06.979Z,22.45
2022-09-10T14:13:55.404Z,22.29
2022-09-10T14:16:31.802Z,22.28
2022-09-10T14:18:59.462Z,22.20
2022-09-10T14:21:28.960Z,22.06
2022-09-10T14:23:57.167Z,22.04
2022-09-10T14:26:28.053Z,22.13
2022-09-10T14:28:54.522Z,22.22
2022-09-10T14:31:27.043Z,22.27
2022-09-10T14:33:54.175Z,22.39
2022-09-10T14:36:29.983Z,22.52
2022-09-10T14:39:15.311Z,22.59
2022-09-10T14:41:42.105Z,22.48
2022-09-10T14:44:14.042Z,22.34
2022-09-10T14:46:51.466Z,22.46
2022-09-10T14:49:26.566Z,23.17
2022-09-10T14:51:53.403Z,23.70
2022-09-10T14:54:19.902Z,23.83
2022-09-10T14:56:47.719Z,23.71
2022-09-10T14:59:16.108Z,23.34
2022-09-10T15:01:43.600Z,22.74
2022-09-10T15:04:14.130Z,22.25
2022-09-10T15:06:41.054Z,21.88
2022-09-10T15:09:08.069Z,21.72
2022-09-10T15:11:34.885Z,21.56
2022-09-10T15:14:01.394Z,21.50
2022-09-10T15:16:27.837Z,21.46
2022-09-10T15:18:54.315Z,21.34
2022-09-10T15:21:20.886Z,21.22
2022-09-10T15:23:48.284Z,21.15
2022-09-10T15:26:15.091Z,21.04
2022-09-10T15:28:41.692Z,21.00
2022-09-10T15:31:08.790Z,21.05
2022-09-10T15:33:36.081Z,21.11
2022-09-10T15:36:02.837Z,21.11
2022-09-10T15:38:29.385Z,21.12
2022-09-10T15:41:06.419Z,21.19
2022-09-10T15:43:36.110Z,21.36
2022-09-10T15:46:02.937Z,21.66
2022-09-10T15:48:30.644Z,21.92
2022-09-10T15:51:00.342Z,22.10
2022-09-10T15:53:27.140Z,22.24
2022-09-10T15:55:55.388Z,22.38
2022-09-10T15:58:21.800Z,22.58
2022-09-10T16:00:48.340Z,22.69
2022-09-10T16:03:14.766Z,22.60
2022-09-10T16:05:41.598Z,22.34
2022-09-10T16:08:08.101Z,22.12
2022-09-10T16:10:38.089Z,21.91
2022-09-10T16:13:04.570Z,21.73
2022-09-10T16:15:31.024Z,21.60
2022-09-10T16:17:58.083Z,21.56
2022-09-10T16:20:24.586Z,21.55
2022-09-10T16:22:54.374Z,21.43
2022-09-10T16:25:20.827Z,21.24
2022-09-10T16:27:47.490Z,21.06
2022-09-10T16:30:13.953Z,20.93
2022-09-10T16:32:40.555Z,20.83
2022-09-10T16:35:08.535Z,20.86
2022-09-10T16:37:35.036Z,20.91
2022-09-10T16:40:02.020Z,20.94
2022-09-10T16:42:29.386Z,20.99
2022-09-10T16:44:58.723Z,20.99
2022-09-10T16:47:25.447Z,20.98
2022-09-10T16:49:51.967Z,20.97
2022-09-10T16:52:18.506Z,20.94
2022-09-10T16:54:46.082Z,20.84
2022-09-10T16:57:12.623Z,20.82
2022-09-10T16:59:39.082Z,20.85
2022-09-10T17:02:07.467Z,20.87
2022-09-10T17:04:34.593Z,20.87
2022-09-10T17:07:01.126Z,20.90
2022-09-10T17:09:27.742Z,20.88
2022-09-10T17:11:54.184Z,20.84
2022-09-10T17:14:20.825Z,20.85
2022-09-10T17:16:48.334Z,20.86
2022-09-10T17:19:16.381Z,20.86
2022-09-10T17:21:44.829Z,20.79
2022-09-10T17:24:12.716Z,20.71
2022-09-10T17:26:39.947Z,20.63
2022-09-10T17:29:07.636Z,20.62
2022-09-10T17:31:34.747Z,20.56
2022-09-10T17:34:02.084Z,20.54
2022-09-10T17:36:28.798Z,20.55
2022-09-10T17:38:56.170Z,20.52
2022-09-10T17:41:23.324Z,20.54
2022-09-10T17:43:50.256Z,20.50
2022-09-10T17:46:22.499Z,20.48
2022-09-10T17:48:51.427Z,20.46
2022-09-10T17:51:19.299Z,20.44
2022-09-10T17:53:46.335Z,20.37
2022-09-10T17:56:14.039Z,20.29
2022-09-10T17:58:41.430Z,20.26
2022-09-10T18:01:10.851Z,20.20
2022-09-10T18:03:37.388Z,20.15
2022-09-10T18:06:05.929Z,20.15
2022-09-10T18:08:33.094Z,20.16
2022-09-10T18:11:05.712Z,20.17
2022-09-10T18:13:34.099Z,20.16
2022-09-10T18:16:04.493Z,20.14
2022-09-10T18:18:31.114Z,20.16
2022-09-10T18:21:00.834Z,20.15
2022-09-10T18:58:55.782Z,19.43
2022-09-10T19:32:22.549Z,19.27
2022-09-10T19:35:29.792Z,19.25
2022-09-10T19:37:59.954Z,19.25
2022-09-10T19:40:32.883Z,19.24
2022-09-10T19:46:23.811Z,19.10
2022-09-10T19:58:40.010Z,19.09
2022-09-10T20:01:13.609Z,19.06
2022-09-10T20:03:40.820Z,19.10
2022-09-10T20:06:08.454Z,19.09
2022-09-10T20:08:35.453Z,19.00
2022-09-10T20:11:03.905Z,19.06
2022-09-10T20:13:30.392Z,19.02
2022-09-10T20:15:59.542Z,19.08
2022-09-10T20:18:27.669Z,19.10
2022-09-10T20:20:55.231Z,19.12
2022-09-10T20:23:22.205Z,19.05
2022-09-10T20:25:48.687Z,19.09
2022-09-10T20:28:15.162Z,19.14
2022-09-10T20:30:41.844Z,19.14
2022-09-10T20:33:08.444Z,19.13
2022-09-10T20:35:35.102Z,19.14
2022-09-10T20:38:01.733Z,19.14
2022-09-10T20:40:28.535Z,19.11
2022-09-10T20:42:55.188Z,19.08
2022-09-10T20:45:24.466Z,19.12
2022-09-10T20:47:51.031Z,19.12
2022-09-10T20:50:17.722Z,19.13
2022-09-10T20:52:44.470Z,19.12
2022-09-10T20:55:12.104Z,19.09
2022-09-10T20:57:38.864Z,19.08
2022-09-10T21:00:07.280Z,19.06
2022-09-10T21:02:33.838Z,19.08
2022-09-10T21:05:00.827Z,19.09
2022-09-10T21:07:28.445Z,19.11
2022-09-10T21:09:57.210Z,19.15
2022-09-10T21:12:23.892Z,19.15
2022-09-10T21:14:50.359Z,19.14
2022-09-10T21:17:16.836Z,19.16
2022-09-10T21:19:46.206Z,19.15
2022-09-10T21:22:13.303Z,19.12
2022-09-10T21:24:39.867Z,19.09
2022-09-10T21:27:06.373Z,19.08
2022-09-10T21:29:33.137Z,19.06
2022-09-10T21:31:59.674Z,18.99
2022-09-10T21:34:26.191Z,18.92
2022-09-10T21:36:52.844Z,18.88
2022-09-10T21:39:19.698Z,18.85
2022-09-10T21:41:47.300Z,18.79
2022-09-10T21:44:14.885Z,18.75
2022-09-10T21:46:42.464Z,18.71
2022-09-10T21:49:15.553Z,18.73
2022-09-10T21:51:42.158Z,18.73
2022-09-10T21:54:12.871Z,18.70
2022-09-10T21:56:39.471Z,18.70
2022-09-10T21:59:06.020Z,18.73
2022-09-10T22:01:32.721Z,18.75
2022-09-10T22:04:02.891Z,18.78
2022-09-10T22:06:30.494Z,18.84
2022-09-10T22:08:58.561Z,18.86
2022-09-10T22:11:30.107Z,18.84
2022-09-10T22:13:58.088Z,18.84
2022-09-10T22:16:25.847Z,18.82
2022-09-10T22:18:53.748Z,18.82
2022-09-10T22:21:20.249Z,18.84
2022-09-10T22:23:46.735Z,18.86
2022-09-10T22:26:14.575Z,18.89
2022-09-10T22:28:41.600Z,18.90
2022-09-10T22:31:15.825Z,18.92
2022-09-10T22:33:43.778Z,18.91
2022-09-10T22:36:20.893Z,18.92
2022-09-10T22:38:51.760Z,18.94
2022-09-10T22:41:19.005Z,18.93
2022-09-10T22:43:46.011Z,18.94
2022-09-10T22:46:12.507Z,18.93
2022-09-10T22:48:40.941Z,18.89
2022-09-10T22:51:09.088Z,18.90
2022-09-10T22:53:35.587Z,18.89
2022-09-10T22:56:02.596Z,18.89
2022-09-10T22:58:39.627Z,18.91
2022-09-10T23:01:08.806Z,18.91
2022-09-10T23:03:35.860Z,18.90
2022-09-10T23:06:06.761Z,18.92
2022-09-10T23:08:36.653Z,18.89
2022-09-10T23:11:17.813Z,18.86
2022-09-10T23:13:45.697Z,18.85
2022-09-10T23:16:13.778Z,18.81
2022-09-10T23:18:41.180Z,18.68
2022-09-10T23:21:08.318Z,18.57
2022-09-10T23:23:34.791Z,18.50
2022-09-10T23:26:08.850Z,18.40
2022-09-10T23:28:36.146Z,18.39
2022-09-10T23:31:13.468Z,18.43
2022-09-10T23:33:40.893Z,18.45
2022-09-10T23:36:07.896Z,18.45
2022-09-10T23:38:34.971Z,18.46
2022-09-10T23:41:02.819Z,18.48
2022-09-10T23:43:29.280Z,18.46
2022-09-10T23:45:55.828Z,18.48
2022-09-10T23:48:23.955Z,18.51
2022-09-10T23:50:51.110Z,18.59
2022-09-10T23:53:18.269Z,18.65
2022-09-10T23:55:45.141Z,18.69
2022-09-10T23:58:11.664Z,18.70
